createdAt,value
2022-11-03T00:01:12.918Z,101196.00
2022-11-03T00:03:39.522Z,101199.00
2022-11-03T00:06:06.297Z,101203.00
2022-11-03T00:08:41.563Z,101199.00
2022-11-03T00:11:13.693Z,101193.00
2022-11-03T00:13:43.173Z,101188.00
2022-11-03T00:16:12.228Z,101183.00
2022-11-03T00:18:39.772Z,101178.00
2022-11-03T00:21:08.659Z,101174.00
2022-11-03T00:23:40.486Z,101171.00
2022-11-03T00:26:24.064Z,101156.00
2022-11-03T00:28:52.930Z,101154.00
2022-11-03T00:31:31.208Z,101154.00
2022-11-03T00:33:59.351Z,101140.00
2022-11-03T00:36:31.038Z,101144.00
2022-11-03T00:38:58.016Z,101150.00
2022-11-03T00:41:26.727Z,101144.00
2022-11-03T00:43:53.918Z,101137.00
2022-11-03T00:46:22.278Z,101130.00
2022-11-03T00:48:49.258Z,101136.00
2022-11-03T00:51:18.717Z,101122.00
2022-11-03T00:53:47.991Z,101126.00
2022-11-03T00:56:36.305Z,101118.00
2022-11-03T00:59:04.609Z,101121.00
2022-11-03T01:01:37.046Z,101113.00
2022-11-03T01:04:24.443Z,101109.00
2022-11-03T01:06:53.620Z,101105.00
2022-11-03T01:09:25.695Z,101110.00
2022-11-03T01:12:07.160Z,101116.00
2022-11-03T01:14:36.902Z,101109.00
2022-11-03T01:17:08.414Z,101113.00
2022-11-03T01:19:35.072Z,101111.00
2022-11-03T01:22:04.190Z,101100.00
2022-11-03T01:24:37.035Z,101104.00
2022-11-03T01:27:03.943Z,101101.00
2022-11-03T01:29:30.523Z,101107.00
2022-11-03T01:31:58.120Z,101089.00
2022-11-03T01:34:24.690Z,101082.00
2022-11-03T01:36:51.460Z,101096.00
2022-11-03T01:39:19.391Z,101089.00
2022-11-03T01:41:48.008Z,101077.00
2022-11-03T01:44:14.517Z,101083.00
2022-11-03T01:47:11.933Z,101075.00
2022-11-03T01:49:42.297Z,101077.00
2022-11-03T01:52:34.181Z,101072.00
2022-11-03T01:55:04.602Z,101067.00
2022-11-03T01:57:37.623Z,101071.00
2022-11-03T02:00:05.258Z,101070.00
2022-11-03T02:02:32.140Z,101058.00
2022-11-03T02:05:00.767Z,101056.00
2022-11-03T02:07:51.816Z,101050.00
2022-11-03T02:10:18.915Z,101039.00
2022-11-03T02:12:45.894Z,101041.00
2022-11-03T02:15:16.118Z,101045.00
2022-11-03T02:17:43.586Z,101036.00
2022-11-03T02:20:13.801Z,101029.00
2022-11-03T02:23:03.102Z,101021.00
2022-11-03T02:25:57.834Z,101014.00
2022-11-03T02:28:30.037Z,101009.00
2022-11-03T02:31:29.284Z,101013.00
2022-11-03T02:34:06.713Z,101003.00
2022-11-03T02:36:59.212Z,100999.00
2022-11-03T02:39:41.100Z,100986.00
2022-11-03T02:42:10.528Z,100994.00
2022-11-03T02:44:39.111Z,100983.00
2022-11-03T02:47:11.647Z,100963.00
2022-11-03T02:49:49.948Z,100960.00
2022-11-03T02:52:40.308Z,100959.00
2022-11-03T02:55:33.988Z,100953.00
2022-11-03T02:58:23.228Z,100944.00
2022-11-03T03:01:15.001Z,100948.00
2022-11-03T03:03:53.494Z,100931.00
2022-11-03T03:06:45.856Z,100928.00
2022-11-03T03:09:20.022Z,100921.00
2022-11-03T03:11:47.988Z,100928.00
2022-11-03T03:14:22.860Z,100920.00
2022-11-03T03:17:00.617Z,100922.00
2022-11-03T03:19:30.260Z,100917.00
2022-11-03T03:22:01.274Z,100920.00
2022-11-03T03:24:37.357Z,100921.00
2022-11-03T03:27:08.904Z,100903.00
2022-11-03T03:29:41.739Z,100912.00
2022-11-03T03:32:10.830Z,100892.00
2022-11-03T03:34:40.804Z,100904.00
2022-11-03T03:37:09.228Z,100903.00
2022-11-03T03:39:39.539Z,100886.00
2022-11-03T03:42:10.119Z,100889.00
2022-11-03T03:44:38.863Z,100888.00
2022-11-03T03:47:12.346Z,100875.00
2022-11-03T03:49:39.182Z,100881.00
2022-11-03T03:52:06.307Z,100878.00
2022-11-03T03:54:32.838Z,100865.00
2022-11-03T03:57:05.356Z,100863.00
2022-11-03T03:59:31.971Z,100851.00
2022-11-03T04:01:59.184Z,100847.00
2022-11-03T04:04:25.848Z,100851.00
2022-11-03T04:07:12.367Z,100849.00
2022-11-03T04:09:38.983Z,100834.00
2022-11-03T04:12:24.281Z,100835.00
2022-11-03T04:15:09.242Z,100836.00
2022-11-03T04:17:55.098Z,100832.00
2022-11-03T04:20:39.898Z,100828.00
2022-11-03T04:23:06.428Z,100816.00
2022-11-03T04:25:34.622Z,100820.00
2022-11-03T04:28:01.915Z,100815.00
2022-11-03T04:30:28.492Z,100803.00
2022-11-03T04:32:55.031Z,100803.00
2022-11-03T04:35:27.688Z,100804.00
2022-11-03T04:37:58.410Z,100797.00
2022-11-03T04:40:25.313Z,100796.00
2022-11-03T04:42:52.060Z,100784.00
2022-11-03T04:45:30.105Z,100778.00
2022-11-03T04:48:00.049Z,100779.00
2022-11-03T04:50:26.894Z,100776.00
2022-11-03T04:52:58.617Z,100779.00
2022-11-03T04:55:25.933Z,100774.00
2022-11-03T04:58:00.248Z,100759.00
2022-11-03T05:00:27.086Z,100763.00
2022-11-03T05:02:56.087Z,100761.00
2022-11-03T05:05:26.092Z,100770.00
2022-11-03T05:07:55.407Z,100758.00
2022-11-03T05:10:26.136Z,100759.00
2022-11-03T05:12:54.818Z,100747.00
2022-11-03T05:15:30.158Z,100754.00
2022-11-03T05:17:58.878Z,100741.00
2022-11-03T05:20:36.631Z,100729.00
2022-11-03T05:23:04.964Z,100729.00
2022-11-03T05:25:39.427Z,100729.00
2022-11-03T05:28:20.835Z,100723.00
2022-11-03T05:30:49.091Z,100729.00
2022-11-03T05:33:20.915Z,100721.00
2022-11-03T05:35:47.898Z,100711.00
2022-11-03T05:38:16.864Z,100713.00
2022-11-03T05:40:43.584Z,100715.00
2022-11-03T05:43:13.588Z,100715.00
2022-11-03T05:45:40.390Z,100710.00
2022-11-03T05:48:30.875Z,100718.00
2022-11-03T05:51:00.414Z,100704.00
2022-11-03T05:53:38.554Z,100700.00
2022-11-03T05:56:06.640Z,100711.00
2022-11-03T05:58:38.892Z,100713.00
2022-11-03T06:01:11.795Z,100704.00
2022-11-03T06:03:39.203Z,100692.00
2022-11-03T06:06:18.714Z,100696.00
2022-11-03T06:08:46.251Z,100689.00
2022-11-03T06:11:36.935Z,100675.00
2022-11-03T06:14:23.974Z,100679.00
2022-11-03T06:17:11.792Z,100679.00
2022-11-03T06:19:42.282Z,100664.00
2022-11-03T06:22:25.806Z,100655.00
2022-11-03T06:25:00.136Z,100649.00
2022-11-03T06:27:30.756Z,100645.00
2022-11-03T06:30:03.778Z,100651.00
2022-11-03T06:32:30.566Z,100644.00
2022-11-03T06:34:58.894Z,100631.00
2022-11-03T06:37:29.992Z,100625.00
2022-11-03T06:40:16.887Z,100639.00
2022-11-03T06:42:43.533Z,100645.00
2022-11-03T06:45:24.071Z,100627.00
2022-11-03T06:47:53.088Z,100629.00
2022-11-03T06:50:29.987Z,100632.00
2022-11-03T06:52:57.660Z,100619.00
2022-11-03T06:55:33.104Z,100626.00
2022-11-03T06:58:04.896Z,100626.00
2022-11-03T07:00:34.181Z,100615.00
2022-11-03T07:03:20.355Z,100604.00
2022-11-03T07:05:47.407Z,100608.00
2022-11-03T07:08:31.019Z,100598.00
2022-11-03T07:11:02.422Z,100594.00
2022-11-03T07:13:32.620Z,100572.00
2022-11-03T07:15:59.393Z,100573.00
2022-11-03T07:18:30.675Z,100581.00
2022-11-03T07:20:58.336Z,100579.00
2022-11-03T07:23:29.016Z,100576.00
2022-11-03T07:26:00.173Z,100574.00
2022-11-03T07:28:34.147Z,100569.00
2022-11-03T07:31:02.613Z,100562.00
2022-11-03T07:33:31.823Z,100554.00
2022-11-03T07:36:16.602Z,100560.00
2022-11-03T07:38:46.556Z,100567.00
2022-11-03T07:41:22.759Z,100559.00
2022-11-03T07:43:59.995Z,100558.00
2022-11-03T07:46:26.996Z,100571.00
2022-11-03T07:48:57.053Z,100545.00
2022-11-03T07:51:31.879Z,100543.00
2022-11-03T07:54:16.563Z,100541.00
2022-11-03T07:56:46.686Z,100537.00
2022-11-03T07:59:18.915Z,100537.00
2022-11-03T08:01:47.741Z,100535.00
2022-11-03T08:04:20.400Z,100526.00
2022-11-03T08:06:48.321Z,100521.00
2022-11-03T08:09:15.232Z,100507.00
2022-11-03T08:11:41.961Z,100499.00
2022-11-03T08:14:09.215Z,100495.00
2022-11-03T08:16:36.092Z,100487.00
2022-11-03T08:19:02.879Z,100485.00
2022-11-03T08:21:29.479Z,100468.00
2022-11-03T08:23:56.112Z,100464.00
2022-11-03T08:26:22.726Z,100463.00
2022-11-03T08:28:49.532Z,100445.00
2022-11-03T08:31:16.689Z,100435.00
2022-11-03T08:33:44.480Z,100440.00
2022-11-03T08:36:11.826Z,100436.00
2022-11-03T08:38:38.545Z,100423.00
2022-11-03T08:41:05.378Z,100420.00
2022-11-03T08:43:31.927Z,100419.00
2022-11-03T08:46:05.624Z,100413.00
2022-11-03T08:48:40.144Z,100390.00
2022-11-03T08:51:08.391Z,100394.00
2022-11-03T08:53:35.442Z,100390.00
2022-11-03T08:56:01.995Z,100394.00
2022-11-03T08:58:28.551Z,100390.00
2022-11-03T09:00:55.123Z,100410.00
2022-11-03T09:03:21.768Z,100408.00
2022-11-03T09:05:48.441Z,100415.00
2022-11-03T09:11:01.579Z,100421.00
2022-11-03T09:13:28.132Z,100410.00
2022-11-03T09:15:54.697Z,100396.00
2022-11-03T09:18:22.233Z,100392.00
2022-11-03T09:20:48.824Z,100387.00
2022-11-03T09:23:15.381Z,100385.00
2022-11-03T09:25:41.911Z,100378.00
2022-11-03T09:28:08.747Z,100380.00
2022-11-03T09:30:35.537Z,100384.00
2022-11-03T09:33:02.150Z,100374.00
2022-11-03T09:35:28.680Z,100367.00
2022-11-03T09:37:55.310Z,100373.00
2022-11-03T09:40:22.041Z,100351.00
2022-11-03T09:42:48.787Z,100342.00
2022-11-03T09:45:15.427Z,100353.00
2022-11-03T09:47:43.625Z,100352.00
2022-11-03T09:50:19.317Z,100360.00
2022-11-03T09:52:51.940Z,100374.00
2022-11-03T09:55:24.003Z,100368.00
2022-11-03T09:57:57.471Z,100361.00
2022-11-03T10:00:24.770Z,100367.00
2022-11-03T10:02:51.428Z,100370.00
2022-11-03T10:05:25.196Z,100365.00
2022-11-03T10:08:03.639Z,100358.00
2022-11-03T10:10:30.753Z,100354.00
2022-11-03T10:12:58.764Z,100332.00
2022-11-03T10:15:27.010Z,100299.00
2022-11-03T10:17:54.652Z,100279.00
2022-11-03T10:20:22.505Z,100300.00
2022-11-03T10:22:52.902Z,100307.00
2022-11-03T10:25:38.931Z,100290.00
2022-11-03T10:28:26.769Z,100291.00
2022-11-03T10:31:14.522Z,100287.00
2022-11-03T10:33:51.897Z,100290.00
2022-11-03T10:36:18.495Z,100282.00
2022-11-03T10:38:45.569Z,100275.00
2022-11-03T10:41:25.657Z,100280.00
2022-11-03T10:44:05.871Z,100272.00
2022-11-03T10:49:20.768Z,100259.00
2022-11-03T10:51:49.989Z,100259.00
2022-11-03T10:54:18.591Z,100247.00
2022-11-03T10:56:46.636Z,100226.00
2022-11-03T10:59:22.303Z,100247.00
2022-11-03T11:01:49.112Z,100243.00
2022-11-03T11:04:20.810Z,100227.00
2022-11-03T11:06:47.688Z,100228.00
2022-11-03T11:09:20.724Z,100229.00
2022-11-03T11:12:14.910Z,100218.00
2022-11-03T11:14:53.286Z,100204.00
2022-11-03T11:17:38.086Z,100208.00
2022-11-03T11:20:19.587Z,100189.00
2022-11-03T11:22:46.160Z,100190.00
2022-11-03T11:25:13.316Z,100195.00
2022-11-03T11:27:39.799Z,100184.00
2022-11-03T11:30:27.815Z,100179.00
2022-11-03T11:33:23.084Z,100188.00
2022-11-03T11:35:49.618Z,100188.00
2022-11-03T11:38:55.442Z,100175.00
2022-11-03T11:41:57.468Z,100169.00
2022-11-03T11:44:57.951Z,100183.00
2022-11-03T11:47:24.741Z,100176.00
2022-11-03T11:50:06.662Z,100161.00
2022-11-03T11:52:50.301Z,100169.00
2022-11-03T11:55:20.135Z,100170.00
2022-11-03T11:57:47.571Z,100173.00
2022-11-03T12:00:25.897Z,100170.00
2022-11-03T12:02:53.596Z,100161.00
2022-11-03T12:05:33.294Z,100141.00
2022-11-03T12:08:00.306Z,100137.00
2022-11-03T12:10:31.608Z,100129.00
2022-11-03T12:12:59.884Z,100118.00
2022-11-03T12:15:55.430Z,100109.00
2022-11-03T12:18:47.650Z,100102.00
2022-11-03T12:21:50.324Z,100113.00
2022-11-03T12:24:33.020Z,100113.00
2022-11-03T12:27:00.755Z,100111.00
2022-11-03T12:29:27.661Z,100094.00
2022-11-03T12:31:54.429Z,100090.00
2022-11-03T12:34:21.383Z,100075.00
2022-11-03T12:36:51.781Z,100074.00
2022-11-03T12:39:21.432Z,100073.00
2022-11-03T12:41:48.070Z,100060.00
2022-11-03T12:44:14.709Z,100056.00
2022-11-03T12:46:41.285Z,100059.00
2022-11-03T12:49:08.490Z,100048.00
2022-11-03T12:51:35.117Z,100044.00
2022-11-03T12:54:01.938Z,100033.00
2022-11-03T12:56:28.524Z,100010.00
2022-11-03T12:58:55.083Z,100000.00
2022-11-03T13:01:22.310Z,99995.00
2022-11-03T13:03:49.757Z,99984.00
2022-11-03T13:06:16.352Z,99973.00
2022-11-03T13:08:44.036Z,99957.00
2022-11-03T13:11:30.544Z,99951.00
2022-11-03T13:13:57.201Z,99950.00
2022-11-03T13:16:23.861Z,99951.00
2022-11-03T13:18:50.543Z,99945.00
2022-11-03T13:21:17.899Z,99941.00
2022-11-03T13:23:44.503Z,99932.00
2022-11-03T13:26:11.247Z,99933.00
2022-11-03T13:28:37.834Z,99922.00
2022-11-03T13:31:04.435Z,99924.00
2022-11-03T13:33:30.958Z,99922.00
2022-11-03T13:35:57.640Z,99924.00
2022-11-03T13:38:24.274Z,99914.00
2022-11-03T13:40:57.813Z,99916.00
2022-11-03T13:43:25.997Z,99917.00
2022-11-03T13:45:53.125Z,99918.00
2022-11-03T13:49:19.993Z,99904.00
2022-11-03T13:51:06.652Z,99899.00
2022-11-03T13:56:22.126Z,99886.00
2022-11-03T14:01:36.516Z,99879.00
2022-11-03T14:06:50.313Z,99875.00
2022-11-03T14:09:16.855Z,99867.00
2022-11-03T14:12:02.256Z,99856.00
2022-11-03T14:14:28.907Z,99850.00
2022-11-03T14:16:55.653Z,99845.00
2022-11-03T14:19:30.747Z,99861.00
2022-11-03T14:22:02.084Z,99839.00
2022-11-03T14:24:28.797Z,99838.00
2022-11-03T14:26:55.351Z,99832.00
2022-11-03T14:29:21.982Z,99823.00
2022-11-03T14:31:48.562Z,99817.00
2022-11-03T14:34:15.207Z,99819.00
2022-11-03T14:36:42.234Z,99810.00
2022-11-03T14:39:08.882Z,99824.00
2022-11-03T14:41:53.847Z,99822.00
2022-11-03T14:44:20.466Z,99817.00
2022-11-03T14:46:47.038Z,99809.00
2022-11-03T14:49:13.580Z,99811.00
2022-11-03T14:51:40.189Z,99811.00
2022-11-03T14:54:06.903Z,99801.00
2022-11-03T14:56:33.459Z,99802.00
2022-11-03T14:59:00.045Z,99802.00
2022-11-03T15:01:26.765Z,99802.00
2022-11-03T15:03:53.596Z,99803.00
2022-11-03T15:06:20.182Z,99810.00
2022-11-03T15:08:48.913Z,99821.00
2022-11-03T15:11:18.616Z,99828.00
2022-11-03T15:13:47.232Z,99819.00
2022-11-03T15:16:16.507Z,99819.00
2022-11-03T15:18:44.589Z,99822.00
2022-11-03T15:21:11.515Z,99823.00
2022-11-03T15:26:25.066Z,99806.00
2022-11-03T15:28:51.709Z,99808.00
2022-11-03T15:31:18.265Z,99807.00
2022-11-03T15:33:44.817Z,99821.00
2022-11-03T15:36:11.947Z,99812.00
2022-11-03T15:38:38.680Z,99812.00
2022-11-03T15:41:17.231Z,99804.00
2022-11-03T15:43:44.316Z,99805.00
2022-11-03T15:46:11.326Z,99811.00
2022-11-03T15:48:38.616Z,99810.00
2022-11-03T15:51:05.824Z,99806.00
2022-11-03T15:53:32.762Z,99803.00
2022-11-03T15:55:59.420Z,99807.00
2022-11-03T15:58:26.348Z,99796.00
2022-11-03T16:00:53.002Z,99791.00
2022-11-03T16:03:19.686Z,99796.00
2022-11-03T16:05:46.260Z,99798.00
2022-11-03T16:08:13.367Z,99803.00
2022-11-03T16:10:42.768Z,99806.00
2022-11-03T16:13:14.584Z,99806.00
2022-11-03T16:15:41.177Z,99802.00
2022-11-03T16:18:08.071Z,99788.00
2022-11-03T16:20:35.034Z,99790.00
2022-11-03T16:23:02.263Z,99797.00
2022-11-03T16:25:28.817Z,99803.00
2022-11-03T16:27:55.386Z,99794.00
2022-11-03T16:30:22.078Z,99788.00
2022-11-03T16:32:53.039Z,99786.00
2022-11-03T16:35:20.667Z,99797.00
2022-11-03T16:37:47.370Z,99797.00
2022-11-03T16:40:19.043Z,99798.00
2022-11-03T16:42:46.307Z,99805.00
2022-11-03T16:45:36.387Z,99812.00
2022-11-03T16:48:04.708Z,99811.00
2022-11-03T16:50:32.645Z,99820.00
2022-11-03T16:52:59.238Z,99826.00
2022-11-03T16:55:26.916Z,99827.00
2022-11-03T16:57:53.523Z,99835.00
2022-11-03T17:00:20.559Z,99834.00
2022-11-03T17:02:47.640Z,99836.00
2022-11-03T17:05:16.655Z,99831.00
2022-11-03T17:07:51.690Z,99834.00
2022-11-03T17:10:20.025Z,99842.00
2022-11-03T17:12:46.592Z,99844.00
2022-11-03T17:15:13.194Z,99849.00
2022-11-03T17:17:39.822Z,99849.00
2022-11-03T17:20:06.818Z,99860.00
2022-11-03T17:22:33.387Z,99859.00
2022-11-03T17:25:01.695Z,99860.00
2022-11-03T17:27:38.180Z,99862.00
2022-11-03T17:30:08.999Z,99858.00
2022-11-03T17:32:43.123Z,99866.00
2022-11-03T17:35:17.479Z,99871.00
2022-11-03T17:37:44.556Z,99863.00
2022-11-03T17:40:16.460Z,99865.00
2022-11-03T17:42:44.023Z,99862.00
2022-11-03T17:45:15.776Z,99870.00
2022-11-03T17:47:42.913Z,99886.00
2022-11-03T17:50:14.718Z,99897.00
2022-11-03T17:52:41.798Z,99892.00
2022-11-03T17:55:24.714Z,99905.00
2022-11-03T17:57:51.655Z,99911.00
2022-11-03T18:00:21.045Z,99906.00
2022-11-03T18:02:49.297Z,99913.00
2022-11-03T18:05:31.388Z,99917.00
2022-11-03T18:08:00.095Z,99927.00
2022-11-03T18:10:33.467Z,99917.00
2022-11-03T18:13:16.498Z,99912.00
2022-11-03T18:16:05.472Z,99917.00
2022-11-03T18:18:36.432Z,99923.00
2022-11-03T18:21:03.647Z,99916.00
2022-11-03T18:23:32.689Z,99908.00
2022-11-03T18:26:04.384Z,99903.00
2022-11-03T18:28:30.949Z,99882.00
2022-11-03T18:30:58.859Z,99936.00
2022-11-03T18:33:32.989Z,99950.00
2022-11-03T18:36:03.012Z,99954.00
2022-11-03T18:38:30.115Z,99963.00
2022-11-03T18:40:56.818Z,99966.00
2022-11-03T18:43:25.001Z,99958.00
2022-11-03T18:45:52.917Z,99967.00
2022-11-03T18:48:19.846Z,99966.00
2022-11-03T18:50:57.196Z,99950.00
2022-11-03T18:53:25.940Z,99948.00
2022-11-03T18:55:53.866Z,99953.00
2022-11-03T18:58:23.596Z,99959.00
2022-11-03T19:00:52.644Z,99955.00
2022-11-03T19:03:22.032Z,99965.00
2022-11-03T19:05:50.959Z,99964.00
2022-11-03T19:08:22.319Z,99968.00
2022-11-03T19:10:50.004Z,99958.00
2022-11-03T19:13:34.753Z,99962.00
2022-11-03T19:16:05.368Z,99959.00
2022-11-03T19:18:35.372Z,99965.00
2022-11-03T19:21:02.028Z,99961.00
2022-11-03T19:23:28.755Z,99967.00
2022-11-03T19:25:59.211Z,99968.00
2022-11-03T19:28:27.684Z,99968.00
2022-11-03T19:30:57.828Z,99968.00
2022-11-03T19:33:28.672Z,99968.00
2022-11-03T19:35:59.282Z,99971.00
2022-11-03T19:38:26.017Z,99968.00
2022-11-03T19:41:11.412Z,99970.00
2022-11-03T19:43:38.008Z,99976.00
2022-11-03T19:46:05.112Z,99975.00
2022-11-03T19:48:33.818Z,99982.00
2022-11-03T19:51:00.632Z,99981.00
2022-11-03T19:53:29.420Z,99980.00
2022-11-03T19:55:56.868Z,99981.00
2022-11-03T19:58:29.060Z,99987.00
2022-11-03T20:00:56.801Z,99984.00
2022-11-03T20:03:25.147Z,99990.00
2022-11-03T20:05:56.951Z,99985.00
2022-11-03T20:08:25.743Z,99987.00
2022-11-03T20:10:52.671Z,99990.00
2022-11-03T20:13:22.533Z,99999.00
2022-11-03T20:15:49.529Z,100000.00
2022-11-03T20:18:21.749Z,100007.00
2022-11-03T20:20:49.369Z,100006.00
2022-11-03T20:23:21.889Z,100019.00
2022-11-03T20:25:49.411Z,100014.00
2022-11-03T20:28:28.483Z,100019.00
2022-11-03T20:30:56.158Z,100019.00
2022-11-03T20:33:24.881Z,100019.00
2022-11-03T20:35:53.372Z,100030.00
2022-11-03T20:38:20.602Z,100029.00
2022-11-03T20:40:49.055Z,100026.00
2022-11-03T20:43:40.083Z,100043.00
2022-11-03T20:46:32.097Z,100041.00
2022-11-03T20:48:59.840Z,100045.00
2022-11-03T20:51:32.511Z,100043.00
2022-11-03T20:53:59.674Z,100042.00
2022-11-03T20:56:28.468Z,100045.00
2022-11-03T20:58:55.890Z,100052.00
2022-11-03T21:01:33.305Z,100055.00
2022-11-03T21:04:01.770Z,100060.00
2022-11-03T21:06:30.722Z,100059.00
2022-11-03T21:08:57.762Z,100062.00
2022-11-03T21:11:28.000Z,100060.00
2022-11-03T21:13:59.235Z,100068.00
2022-11-03T21:16:48.314Z,100081.00
2022-11-03T21:19:36.610Z,100076.00
2022-11-03T21:22:50.205Z,100078.00
2022-11-03T21:25:14.687Z,100076.00
2022-11-03T21:27:42.061Z,100085.00
2022-11-03T21:30:11.892Z,100075.00
2022-11-03T21:32:38.508Z,100076.00
2022-11-03T21:35:08.533Z,100066.00
2022-11-03T21:37:35.261Z,100073.00
2022-11-03T21:40:01.907Z,100067.00
2022-11-03T21:42:47.055Z,100059.00
2022-11-03T21:45:14.802Z,100074.00
2022-11-03T21:48:01.354Z,100069.00
2022-11-03T21:50:27.912Z,100068.00
2022-11-03T21:52:54.564Z,100075.00
2022-11-03T21:55:21.175Z,100083.00
2022-11-03T21:57:47.764Z,100095.00
2022-11-03T22:00:15.939Z,100090.00
2022-11-03T22:02:42.552Z,100095.00
2022-11-03T22:05:11.010Z,100102.00
2022-11-03T22:07:37.888Z,100102.00
2022-11-03T22:10:05.193Z,100102.00
2022-11-03T22:12:31.893Z,100110.00
2022-11-03T22:15:16.979Z,100107.00
2022-11-03T22:17:46.307Z,100115.00
2022-11-03T22:20:31.046Z,100115.00
2022-11-03T22:23:18.957Z,100111.00
2022-11-03T22:26:08.067Z,100116.00
2022-11-03T22:28:34.612Z,100130.00
2022-11-03T22:31:22.707Z,100133.00
2022-11-03T22:34:07.790Z,100136.00
2022-11-03T22:36:34.420Z,100147.00
2022-11-03T22:39:19.555Z,100134.00
2022-11-03T22:42:06.622Z,100136.00
2022-11-03T22:45:05.987Z,100132.00
2022-11-03T22:47:32.596Z,100126.00
2022-11-03T22:49:59.225Z,100116.00
2022-11-03T22:52:25.803Z,100119.00
2022-11-03T22:54:52.469Z,100117.00
2022-11-03T22:57:21.132Z,100123.00
2022-11-03T22:59:47.768Z,100125.00
2022-11-03T23:02:14.445Z,100130.00
2022-11-03T23:04:41.093Z,100139.00
2022-11-03T23:07:09.721Z,100143.00
2022-11-03T23:09:36.277Z,100133.00
2022-11-03T23:12:03.087Z,100143.00
2022-11-03T23:14:49.651Z,100139.00
2022-11-03T23:17:16.246Z,100128.00
2022-11-03T23:20:01.575Z,100145.00
2022-11-03T23:22:28.237Z,100135.00
2022-11-03T23:25:01.059Z,100139.00
2022-11-03T23:27:28.452Z,100127.00
2022-11-03T23:29:55.013Z,100138.00
2022-11-03T23:32:21.583Z,100135.00
2022-11-03T23:34:48.238Z,100146.00
2022-11-03T23:37:14.992Z,100141.00
2022-11-03T23:39:41.662Z,100139.00
2022-11-03T23:42:10.419Z,100144.00
2022-11-03T23:44:57.239Z,100145.00
2022-11-03T23:47:42.137Z,100146.00
2022-11-03T23:50:08.960Z,100146.00
2022-11-03T23:52:35.615Z,100149.00
2022-11-03T23:55:02.232Z,100147.00
2022-11-03T23:57:47.203Z,100148.00
